sensor_id;sensor_type;location;lat;lon;timestamp;pressure;altitude;pressure_sealevel;temperature;humidity
50292;BME280;36190;54.980;73.388;2023-03-14T00:00:10;101576.03;;;-7.43;79.39
50292;BME280;36190;54.980;73.388;2023-03-14T00:02:38;101601.78;;;-7.31;79.46
50292;BME280;36190;54.980;73.388;2023-03-14T00:05:07;101604.31;;;-7.28;79.32
50292;BME280;36190;54.980;73.388;2023-03-14T00:07:36;101600.91;;;-7.30;79.52
50292;BME280;36190;54.980;73.388;2023-03-14T00:10:05;101605.25;;;-7.32;79.56
50292;BME280;36190;54.980;73.388;2023-03-14T00:12:33;101600.84;;;-7.25;79.54
50292;BME280;36190;54.980;73.388;2023-03-14T00:15:01;101600.84;;;-7.25;79.51
50292;BME280;36190;54.980;73.388;2023-03-14T00:17:30;101593.94;;;-7.26;79.83
50292;BME280;36190;54.980;73.388;2023-03-14T00:19:58;101599.09;;;-7.25;79.68
50292;BME280;36190;54.980;73.388;2023-03-14T00:22:30;101595.66;;;-7.27;79.63
50292;BME280;36190;54.980;73.388;2023-03-14T00:24:57;101591.34;;;-7.28;79.80
50292;BME280;36190;54.980;73.388;2023-03-14T00:27:25;101596.59;;;-7.31;79.80
50292;BME280;36190;54.980;73.388;2023-03-14T00:29:52;101594.03;;;-7.33;79.86
50292;BME280;36190;54.980;73.388;2023-03-14T00:32:20;101591.44;;;-7.34;79.91
50292;BME280;36190;54.980;73.388;2023-03-14T00:34:49;101594.94;;;-7.35;80.10
50292;BME280;36190;54.980;73.388;2023-03-14T00:37:16;101580.34;;;-7.44;80.12
50292;BME280;36190;54.980;73.388;2023-03-14T00:39:44;101584.63;;;-7.41;79.83
50292;BME280;36190;54.980;73.388;2023-03-14T00:42:11;101587.28;;;-7.43;80.12
50292;BME280;36190;54.980;73.388;2023-03-14T00:44:39;101575.16;;;-7.44;80.08
50292;BME280;36190;54.980;73.388;2023-03-14T00:47:06;101571.81;;;-7.49;80.29
50292;BME280;36190;54.980;73.388;2023-03-14T00:49:34;101571.81;;;-7.51;80.43
50292;BME280;36190;54.980;73.388;2023-03-14T00:52:03;101544.47;;;-7.70;80.36
50292;BME280;36190;54.980;73.388;2023-03-14T00:54:30;101568.34;;;-7.50;80.39
50292;BME280;36190;54.980;73.388;2023-03-14T00:56:58;101563.19;;;-7.51;80.47
50292;BME280;36190;54.980;73.388;2023-03-14T00:59:25;101564.97;;;-7.55;80.44
50292;BME280;36190;54.980;73.388;2023-03-14T01:01:52;101568.47;;;-7.59;80.41
50292;BME280;36190;54.980;73.388;2023-03-14T01:04:20;101564.19;;;-7.60;80.60
50292;BME280;36190;54.980;73.388;2023-03-14T01:06:48;101563.31;;;-7.61;80.73
50292;BME280;36190;54.980;73.388;2023-03-14T01:09:16;101560.69;;;-7.59;80.64
50292;BME280;36190;54.980;73.388;2023-03-14T01:11:44;101552.13;;;-7.64;80.74
50292;BME280;36190;54.980;73.388;2023-03-14T01:14:12;101559.00;;;-7.60;80.60
50292;BME280;36190;54.980;73.388;2023-03-14T01:16:40;101562.47;;;-7.61;80.68
50292;BME280;36190;54.980;73.388;2023-03-14T01:19:08;101556.41;;;-7.60;80.82
50292;BME280;36190;54.980;73.388;2023-03-14T01:21:36;101552.03;;;-7.58;80.79
50292;BME280;36190;54.980;73.388;2023-03-14T01:24:05;101554.69;;;-7.60;80.68
50292;BME280;36190;54.980;73.388;2023-03-14T01:26:35;101552.03;;;-7.58;80.76
50292;BME280;36190;54.980;73.388;2023-03-14T01:29:03;101554.59;;;-7.55;81.01
50292;BME280;36190;54.980;73.388;2023-03-14T01:31:30;101551.13;;;-7.54;80.90
50292;BME280;36190;54.980;73.388;2023-03-14T01:33:58;101539.06;;;-7.55;81.02
50292;BME280;36190;54.980;73.388;2023-03-14T01:36:25;101540.78;;;-7.55;81.01
50292;BME280;36190;54.980;73.388;2023-03-14T01:38:53;101540.75;;;-7.54;81.13
50292;BME280;36190;54.980;73.388;2023-03-14T01:41:22;101540.69;;;-7.51;81.15
50292;BME280;36190;54.980;73.388;2023-03-14T01:43:52;101530.31;;;-7.48;81.05
50292;BME280;36190;54.980;73.388;2023-03-14T01:46:33;101527.66;;;-7.44;81.08
50292;BME280;36190;54.980;73.388;2023-03-14T01:49:05;101522.41;;;-7.41;80.93
50292;BME280;36190;54.980;73.388;2023-03-14T01:51:38;101533.66;;;-7.41;80.79
50292;BME280;36190;54.980;73.388;2023-03-14T01:54:11;101525.84;;;-7.39;80.83
50292;BME280;36190;54.980;73.388;2023-03-14T01:56:41;101539.56;;;-7.31;81.03
50292;BME280;36190;54.980;73.388;2023-03-14T01:59:12;101535.00;;;-7.18;80.80
50292;BME280;36190;54.980;73.388;2023-03-14T02:01:42;101501.31;;;-7.21;80.94
50292;BME280;36190;54.980;73.388;2023-03-14T02:04:11;101518.38;;;-7.06;80.73
50292;BME280;36190;54.980;73.388;2023-03-14T02:06:46;101514.00;;;-7.04;80.70
50292;BME280;36190;54.980;73.388;2023-03-14T02:09:14;101524.38;;;-7.02;80.70
50292;BME280;36190;54.980;73.388;2023-03-14T02:11:43;101517.38;;;-6.99;80.53
50292;BME280;36190;54.980;73.388;2023-03-14T02:14:24;101513.88;;;-6.96;80.67
50292;BME280;36190;54.980;73.388;2023-03-14T02:16:52;101509.47;;;-6.93;80.66
50292;BME280;36190;54.980;73.388;2023-03-14T02:19:27;101512.91;;;-6.91;80.52
50292;BME280;36190;54.980;73.388;2023-03-14T02:22:03;101513.69;;;-6.87;80.44
50292;BME280;36190;54.980;73.388;2023-03-14T02:24:34;101523.13;;;-6.81;80.43
50292;BME280;36190;54.980;73.388;2023-03-14T02:27:10;101524.69;;;-6.72;80.34
50292;BME280;36190;54.980;73.388;2023-03-14T02:29:42;101527.09;;;-6.63;80.28
50292;BME280;36190;54.980;73.388;2023-03-14T02:32:14;101520.09;;;-6.59;79.96
50292;BME280;36190;54.980;73.388;2023-03-14T02:34:48;101516.59;;;-6.55;79.80
50292;BME280;36190;54.980;73.388;2023-03-14T02:37:18;101492.53;;;-6.65;79.82
50292;BME280;36190;54.980;73.388;2023-03-14T02:39:46;101512.97;;;-6.48;79.77
50292;BME280;36190;54.980;73.388;2023-03-14T02:42:16;101505.91;;;-6.41;79.83
50292;BME280;36190;54.980;73.388;2023-03-14T02:44:52;101500.50;;;-6.30;79.93
50292;BME280;36190;54.980;73.388;2023-03-14T02:47:26;101515.97;;;-6.24;79.71
50292;BME280;36190;54.980;73.388;2023-03-14T02:49:58;101489.22;;;-6.29;79.59
50292;BME280;36190;54.980;73.388;2023-03-14T02:52:27;101495.09;;;-6.19;79.47
50292;BME280;36190;54.980;73.388;2023-03-14T02:54:54;101493.31;;;-6.17;79.37
50292;BME280;36190;54.980;73.388;2023-03-14T02:57:23;101502.69;;;-6.12;79.47
50292;BME280;36190;54.980;73.388;2023-03-14T02:59:50;101506.97;;;-6.08;79.28
50292;BME280;36190;54.980;73.388;2023-03-14T03:02:18;101491.38;;;-6.08;78.93
50292;BME280;36190;54.980;73.388;2023-03-14T03:04:46;101497.38;;;-6.05;79.03
50292;BME280;36190;54.980;73.388;2023-03-14T03:07:13;101487.78;;;-6.02;79.17
50292;BME280;36190;54.980;73.388;2023-03-14T03:09:41;101484.94;;;-5.94;79.06
50292;BME280;36190;54.980;73.388;2023-03-14T03:12:08;101477.84;;;-5.86;79.00
50292;BME280;36190;54.980;73.388;2023-03-14T03:14:37;101479.41;;;-5.78;78.82
50292;BME280;36190;54.980;73.388;2023-03-14T03:17:05;101479.28;;;-5.72;78.77
50292;BME280;36190;54.980;73.388;2023-03-14T03:19:33;101473.78;;;-5.60;78.46
50292;BME280;36190;54.980;73.388;2023-03-14T03:22:00;101474.47;;;-5.53;78.34
50292;BME280;36190;54.980;73.388;2023-03-14T03:24:28;101463.88;;;-5.45;78.18
50292;BME280;36190;54.980;73.388;2023-03-14T03:26:55;101468.91;;;-5.38;78.03
50292;BME280;36190;54.980;73.388;2023-03-14T03:29:23;101486.06;;;-5.30;77.56
50292;BME280;36190;54.980;73.388;2023-03-14T03:31:52;101483.34;;;-5.26;77.55
50292;BME280;36190;54.980;73.388;2023-03-14T03:34:19;101486.66;;;-5.20;77.48
50292;BME280;36190;54.980;73.388;2023-03-14T03:36:47;101481.31;;;-5.14;77.41
50292;BME280;36190;54.980;73.388;2023-03-14T03:39:14;101474.25;;;-5.09;77.33
50292;BME280;36190;54.980;73.388;2023-03-14T03:41:42;101478.53;;;-5.06;77.19
50292;BME280;36190;54.980;73.388;2023-03-14T03:44:09;101481.03;;;-5.03;76.97
50292;BME280;36190;54.980;73.388;2023-03-14T03:46:38;101480.09;;;-5.01;76.93
50292;BME280;36190;54.980;73.388;2023-03-14T03:49:07;101480.91;;;-4.99;76.91
50292;BME280;36190;54.980;73.388;2023-03-14T03:51:34;101475.63;;;-4.95;76.81
50292;BME280;36190;54.980;73.388;2023-03-14T03:54:01;101466.88;;;-4.93;76.67
50292;BME280;36190;54.980;73.388;2023-03-14T03:56:29;101471.13;;;-4.89;76.61
50292;BME280;36190;54.980;73.388;2023-03-14T03:58:57;101465.78;;;-4.84;76.54
50292;BME280;36190;54.980;73.388;2023-03-14T04:01:25;101472.66;;;-4.81;76.39
50292;BME280;36190;54.980;73.388;2023-03-14T04:03:52;101473.22;;;-4.72;76.27
50292;BME280;36190;54.980;73.388;2023-03-14T04:06:22;101467.06;;;-4.67;76.09
50292;BME280;36190;54.980;73.388;2023-03-14T04:08:49;101463.59;;;-4.68;76.06
50292;BME280;36190;54.980;73.388;2023-03-14T04:11:17;101470.44;;;-4.64;75.90
50292;BME280;36190;54.980;73.388;2023-03-14T04:13:45;101471.09;;;-4.57;75.83
50292;BME280;36190;54.980;73.388;2023-03-14T04:16:16;101465.72;;;-4.51;75.61
50292;BME280;36190;54.980;73.388;2023-03-14T04:18:43;101464.78;;;-4.48;75.58
50292;BME280;36190;54.980;73.388;2023-03-14T04:21:11;101462.31;;;-4.53;75.45
50292;BME280;36190;54.980;73.388;2023-03-14T04:23:40;101469.03;;;-4.46;75.51
50292;BME280;36190;54.980;73.388;2023-03-14T04:26:07;101467.75;;;-4.31;75.45
50292;BME280;36190;54.980;73.388;2023-03-14T04:28:35;101458.72;;;-4.19;75.06
50292;BME280;36190;54.980;73.388;2023-03-14T04:31:07;101451.53;;;-4.12;74.72
50292;BME280;36190;54.980;73.388;2023-03-14T04:33:35;101448.78;;;-4.07;74.64
50292;BME280;36190;54.980;73.388;2023-03-14T04:36:04;101450.41;;;-4.03;74.44
50292;BME280;36190;54.980;73.388;2023-03-14T04:38:32;101443.50;;;-4.04;74.17
50292;BME280;36190;54.980;73.388;2023-03-14T04:41:00;101439.03;;;-4.01;74.16
50292;BME280;36190;54.980;73.388;2023-03-14T04:43:28;101441.69;;;-4.02;73.96
50292;BME280;36190;54.980;73.388;2023-03-14T04:45:57;101428.47;;;-3.96;74.05
50292;BME280;36190;54.980;73.388;2023-03-14T04:48:27;101435.28;;;-3.92;73.73
50292;BME280;36190;54.980;73.388;2023-03-14T04:50:55;101423.94;;;-3.91;74.00
50292;BME280;36190;54.980;73.388;2023-03-14T04:53:22;101430.06;;;-3.92;73.71
50292;BME280;36190;54.980;73.388;2023-03-14T04:55:50;101429.22;;;-3.92;73.69
50292;BME280;36190;54.980;73.388;2023-03-14T04:58:19;101419.28;;;-3.81;73.72
50292;BME280;36190;54.980;73.388;2023-03-14T05:00:47;101420.72;;;-3.72;73.27
50292;BME280;36190;54.980;73.388;2023-03-14T05:03:15;101412.91;;;-3.72;73.27
50292;BME280;36190;54.980;73.388;2023-03-14T05:05:43;101405.09;;;-3.72;73.18
50292;BME280;36190;54.980;73.388;2023-03-14T05:08:10;101406.81;;;-3.71;73.19
50292;BME280;36190;54.980;73.388;2023-03-14T05:10:38;101403.28;;;-3.70;73.20
50292;BME280;36190;54.980;73.388;2023-03-14T05:13:05;101411.00;;;-3.67;73.16
50292;BME280;36190;54.980;73.388;2023-03-14T05:15:34;101393.34;;;-3.59;73.06
50292;BME280;36190;54.980;73.388;2023-03-14T05:18:02;101386.97;;;-3.50;72.90
50292;BME280;36190;54.980;73.388;2023-03-14T05:20:30;101381.59;;;-3.45;72.58
50292;BME280;36190;54.980;73.388;2023-03-14T05:22:58;101390.25;;;-3.45;72.66
50292;BME280;36190;54.980;73.388;2023-03-14T05:25:25;101370.94;;;-3.39;72.58
50292;BME280;36190;54.980;73.388;2023-03-14T05:27:53;101379.19;;;-3.26;72.42
50292;BME280;36190;54.980;73.388;2023-03-14T05:30:21;101373.56;;;-3.15;72.38
50292;BME280;36190;54.980;73.388;2023-03-14T05:32:50;101373.13;;;-3.02;72.20
50292;BME280;36190;54.980;73.388;2023-03-14T05:35:18;101370.41;;;-2.99;71.92
50292;BME280;36190;54.980;73.388;2023-03-14T05:37:45;101368.34;;;-2.91;71.96
50292;BME280;36190;54.980;73.388;2023-03-14T05:40:13;101367.13;;;-2.81;71.97
50292;BME280;36190;54.980;73.388;2023-03-14T05:42:40;101356.44;;;-2.74;71.66
50292;BME280;36190;54.980;73.388;2023-03-14T05:45:08;101351.75;;;-2.66;71.41
50292;BME280;36190;54.980;73.388;2023-03-14T05:47:37;101339.34;;;-2.59;71.29
50292;BME280;36190;54.980;73.388;2023-03-14T05:50:06;101351.16;;;-2.51;71.25
50292;BME280;36190;54.980;73.388;2023-03-14T05:52:34;101352.78;;;-2.46;70.93
50292;BME280;36190;54.980;73.388;2023-03-14T05:55:02;101343.78;;;-2.39;70.84
50292;BME280;36190;54.980;73.388;2023-03-14T05:57:29;101340.75;;;-2.28;70.76
50292;BME280;36190;54.980;73.388;2023-03-14T05:59:56;101327.22;;;-2.17;70.58
50292;BME280;36190;54.980;73.388;2023-03-14T06:02:24;101333.50;;;-2.01;70.53
50292;BME280;36190;54.980;73.388;2023-03-14T06:04:52;101322.41;;;-1.85;70.27
50292;BME280;36190;54.980;73.388;2023-03-14T06:07:21;101318.13;;;-1.66;70.08
50292;BME280;36190;54.980;73.388;2023-03-14T06:09:48;101328.13;;;-1.55;69.70
50292;BME280;36190;54.980;73.388;2023-03-14T06:12:16;101324.50;;;-1.52;69.40
50292;BME280;36190;54.980;73.388;2023-03-14T06:14:44;101325.41;;;-1.53;69.35
50292;BME280;36190;54.980;73.388;2023-03-14T06:17:11;101328.03;;;-1.53;69.32
50292;BME280;36190;54.980;73.388;2023-03-14T06:19:39;101330.25;;;-1.44;69.28
50292;BME280;36190;54.980;73.388;2023-03-14T06:22:07;101321.72;;;-1.28;69.23
50292;BME280;36190;54.980;73.388;2023-03-14T06:24:36;101324.00;;;-1.20;68.90
50292;BME280;36190;54.980;73.388;2023-03-14T06:27:03;101316.06;;;-1.19;68.61
50292;BME280;36190;54.980;73.388;2023-03-14T06:29:31;101304.81;;;-1.21;68.57
50292;BME280;36190;54.980;73.388;2023-03-14T06:31:58;101310.72;;;-1.16;68.58
50292;BME280;36190;54.980;73.388;2023-03-14T06:34:25;101322.59;;;-1.08;68.44
50292;BME280;36190;54.980;73.388;2023-03-14T06:36:53;101316.16;;;-1.01;68.25
50292;BME280;36190;54.980;73.388;2023-03-14T06:39:20;101313.25;;;-0.95;68.08
50292;BME280;36190;54.980;73.388;2023-03-14T06:41:49;101310.00;;;-1.00;67.86
50292;BME280;36190;54.980;73.388;2023-03-14T06:44:17;101317.94;;;-1.02;68.14
50292;BME280;36190;54.980;73.388;2023-03-14T06:46:44;101315.25;;;-1.00;68.15
50292;BME280;36190;54.980;73.388;2023-03-14T06:49:12;101296.09;;;-1.02;68.14
50292;BME280;36190;54.980;73.388;2023-03-14T06:51:40;101303.06;;;-1.01;67.92
50292;BME280;36190;54.980;73.388;2023-03-14T06:54:07;101301.44;;;-1.04;67.78
50292;BME280;36190;54.980;73.388;2023-03-14T06:56:35;101305.75;;;-1.03;67.92
50292;BME280;36190;54.980;73.388;2023-03-14T06:59:04;101294.91;;;-0.95;67.83
50292;BME280;36190;54.980;73.388;2023-03-14T07:01:31;101301.72;;;-0.91;67.63
50292;BME280;36190;54.980;73.388;2023-03-14T07:04:00;101290.81;;;-0.81;67.68
50292;BME280;36190;54.980;73.388;2023-03-14T07:06:28;101296.25;;;-0.67;67.66
50292;BME280;36190;54.980;73.388;2023-03-14T07:08:56;101299.06;;;-0.52;67.29
50292;BME280;36190;54.980;73.388;2023-03-14T07:11:24;101291.69;;;-0.44;66.97
50292;BME280;36190;54.980;73.388;2023-03-14T07:13:51;101282.03;;;-0.44;66.97
50292;BME280;36190;54.980;73.388;2023-03-14T07:16:20;101277.47;;;-0.40;66.92
50292;BME280;36190;54.980;73.388;2023-03-14T07:18:48;101284.75;;;-0.28;66.84
50292;BME280;36190;54.980;73.388;2023-03-14T07:21:16;101271.03;;;-0.15;66.72
50292;BME280;36190;54.980;73.388;2023-03-14T07:23:43;101273.81;;;-0.01;66.51
50292;BME280;36190;54.980;73.388;2023-03-14T07:26:11;101262.06;;;0.07;66.39
50292;BME280;36190;54.980;73.388;2023-03-14T07:28:38;101250.66;;;0.08;65.83
50292;BME280;36190;54.980;73.388;2023-03-14T07:31:07;101244.78;;;0.03;65.83
50292;BME280;36190;54.980;73.388;2023-03-14T07:33:36;101250.47;;;0.11;65.68
50292;BME280;36190;54.980;73.388;2023-03-14T07:36:03;101241.97;;;0.23;65.73
50292;BME280;36190;54.980;73.388;2023-03-14T07:38:31;101238.44;;;0.24;65.30
50292;BME280;36190;54.980;73.388;2023-03-14T07:40:59;101244.19;;;0.31;65.31
50292;BME280;36190;54.980;73.388;2023-03-14T07:43:27;101243.31;;;0.48;65.30
50292;BME280;36190;54.980;73.388;2023-03-14T07:45:54;101234.28;;;0.70;65.04
50292;BME280;36190;54.980;73.388;2023-03-14T07:48:22;101223.72;;;0.88;64.68
50292;BME280;36190;54.980;73.388;2023-03-14T07:50:54;101233.78;;;1.12;64.22
50292;BME280;36190;54.980;73.388;2023-03-14T07:53:22;101221.63;;;1.25;63.82
50292;BME280;36190;54.980;73.388;2023-03-14T07:55:50;101217.03;;;1.29;63.65
50292;BME280;36190;54.980;73.388;2023-03-14T07:58:18;101212.88;;;1.41;63.48
50292;BME280;36190;54.980;73.388;2023-03-14T08:00:47;101216.31;;;1.57;63.22
50292;BME280;36190;54.980;73.388;2023-03-14T08:03:14;101207.81;;;1.83;62.75
50292;BME280;36190;54.980;73.388;2023-03-14T08:05:42;101202.13;;;2.05;62.34
50292;BME280;36190;54.980;73.388;2023-03-14T08:08:11;101201.75;;;2.26;61.79
50292;BME280;36190;54.980;73.388;2023-03-14T08:10:39;101197.25;;;2.42;61.51
50292;BME280;36190;54.980;73.388;2023-03-14T08:13:06;101192.72;;;2.59;61.11
50292;BME280;36190;54.980;73.388;2023-03-14T08:15:34;101193.25;;;2.64;60.39
50292;BME280;36190;54.980;73.388;2023-03-14T08:18:03;101187.25;;;2.62;60.25
50292;BME280;36190;54.980;73.388;2023-03-14T08:20:30;101178.47;;;2.61;60.06
50292;BME280;36190;54.980;73.388;2023-03-14T08:22:58;101187.44;;;2.59;59.95
50292;BME280;36190;54.980;73.388;2023-03-14T08:25:27;101166.59;;;2.69;59.91
50292;BME280;36190;54.980;73.388;2023-03-14T08:27:56;101174.47;;;2.83;59.65
50292;BME280;36190;54.980;73.388;2023-03-14T08:30:24;101163.63;;;2.88;59.41
50292;BME280;36190;54.980;73.388;2023-03-14T08:32:51;101164.84;;;2.97;59.26
50292;BME280;36190;54.980;73.388;2023-03-14T08:35:20;101165.31;;;3.16;59.19
50292;BME280;36190;54.980;73.388;2023-03-14T08:37:48;101162.84;;;3.28;58.64
50292;BME280;36190;54.980;73.388;2023-03-14T08:40:15;101158.22;;;3.44;58.57
50292;BME280;36190;54.980;73.388;2023-03-14T08:42:44;101162.47;;;3.60;57.61
50292;BME280;36190;54.980;73.388;2023-03-14T08:45:14;101149.81;;;3.78;57.58
50292;BME280;36190;54.980;73.388;2023-03-14T08:47:42;101156.16;;;3.89;56.93
50292;BME280;36190;54.980;73.388;2023-03-14T08:50:11;101147.06;;;4.06;56.42
50292;BME280;36190;54.980;73.388;2023-03-14T08:52:38;101152.44;;;4.30;56.15
50292;BME280;36190;54.980;73.388;2023-03-14T08:55:08;101144.88;;;4.50;56.00
50292;BME280;36190;54.980;73.388;2023-03-14T08:57:36;101138.53;;;4.77;55.92
50292;BME280;36190;54.980;73.388;2023-03-14T09:00:06;101128.06;;;5.00;54.91
50292;BME280;36190;54.980;73.388;2023-03-14T09:02:37;101136.34;;;5.19;54.86
50292;BME280;36190;54.980;73.388;2023-03-14T09:05:05;101134.97;;;5.38;54.47
50292;BME280;36190;54.980;73.388;2023-03-14T09:07:33;101125.59;;;5.45;53.77
50292;BME280;36190;54.980;73.388;2023-03-14T09:10:00;101115.84;;;5.46;53.77
50292;BME280;36190;54.980;73.388;2023-03-14T09:12:28;101126.22;;;5.49;53.44
50292;BME280;36190;54.980;73.388;2023-03-14T09:14:56;101128.84;;;5.49;53.40
50292;BME280;36190;54.980;73.388;2023-03-14T09:17:25;101126.69;;;5.54;53.30
50292;BME280;36190;54.980;73.388;2023-03-14T09:19:53;101126.56;;;5.56;53.15
50292;BME280;36190;54.980;73.388;2023-03-14T09:22:20;101124.88;;;5.55;52.71
50292;BME280;36190;54.980;73.388;2023-03-14T09:24:48;101114.91;;;5.58;52.70
50292;BME280;36190;54.980;73.388;2023-03-14T09:27:16;101115.28;;;5.65;52.45
50292;BME280;36190;54.980;73.388;2023-03-14T09:29:43;101105.19;;;5.82;52.00
50292;BME280;36190;54.980;73.388;2023-03-14T09:32:11;101102.41;;;5.83;52.03
50292;BME280;36190;54.980;73.388;2023-03-14T09:34:40;101103.75;;;5.89;51.72
50292;BME280;36190;54.980;73.388;2023-03-14T09:37:07;101099.03;;;5.92;51.58
50292;BME280;36190;54.980;73.388;2023-03-14T09:39:35;101097.59;;;5.77;51.14
50292;BME280;36190;54.980;73.388;2023-03-14T09:42:04;101087.38;;;5.72;51.29
50292;BME280;36190;54.980;73.388;2023-03-14T09:44:35;101060.28;;;5.57;51.10
50292;BME280;36190;54.980;73.388;2023-03-14T09:47:06;101082.56;;;5.77;50.84
50292;BME280;36190;54.980;73.388;2023-03-14T09:49:35;101072.94;;;5.76;50.89
50292;BME280;36190;54.980;73.388;2023-03-14T09:52:07;101059.44;;;5.80;50.70
50292;BME280;36190;54.980;73.388;2023-03-14T09:54:42;101069.06;;;5.92;50.31
50292;BME280;36190;54.980;73.388;2023-03-14T09:57:12;101058.72;;;5.89;50.16
50292;BME280;36190;54.980;73.388;2023-03-14T09:59:42;101058.59;;;5.79;50.29
50292;BME280;36190;54.980;73.388;2023-03-14T10:02:14;101062.56;;;5.62;50.24
50292;BME280;36190;54.980;73.388;2023-03-14T10:04:44;101052.66;;;5.30;50.62
50292;BME280;36190;54.980;73.388;2023-03-14T10:07:16;101059.38;;;5.34;50.88
50292;BME280;36190;54.980;73.388;2023-03-14T10:09:48;101048.47;;;5.50;51.06
50292;BME280;36190;54.980;73.388;2023-03-14T10:12:16;101049.09;;;5.88;50.42
50292;BME280;36190;54.980;73.388;2023-03-14T10:14:48;101037.28;;;6.15;49.62
50292;BME280;36190;54.980;73.388;2023-03-14T10:17:19;101038.16;;;6.48;49.38
50292;BME280;36190;54.980;73.388;2023-03-14T10:19:54;101031.81;;;6.72;48.73
50292;BME280;36190;54.980;73.388;2023-03-14T10:22:26;101049.88;;;6.78;48.79
50292;BME280;36190;54.980;73.388;2023-03-14T10:25:02;101037.66;;;6.87;48.91
50292;BME280;36190;54.980;73.388;2023-03-14T10:27:32;101041.66;;;7.02;48.49
50292;BME280;36190;54.980;73.388;2023-03-14T10:30:02;101027.75;;;7.10;48.29
50292;BME280;36190;54.980;73.388;2023-03-14T10:32:34;101040.13;;;7.21;47.84
50292;BME280;36190;54.980;73.388;2023-03-14T10:35:19;101044.78;;;7.29;47.20
50292;BME280;36190;54.980;73.388;2023-03-14T10:37:53;101015.84;;;7.26;47.57
50292;BME280;36190;54.980;73.388;2023-03-14T10:40:27;101018.41;;;7.37;47.84
50292;BME280;36190;54.980;73.388;2023-03-14T10:42:58;101016.34;;;7.41;47.63
50292;BME280;36190;54.980;73.388;2023-03-14T10:45:31;101012.31;;;7.47;47.31
50292;BME280;36190;54.980;73.388;2023-03-14T10:48:06;101008.94;;;7.45;47.05
50292;BME280;36190;54.980;73.388;2023-03-14T10:50:34;101026.41;;;7.16;47.57
50292;BME280;36190;54.980;73.388;2023-03-14T10:53:03;101020.31;;;6.83;47.77
50292;BME280;36190;54.980;73.388;2023-03-14T10:55:41;101013.91;;;6.53;47.71
50292;BME280;36190;54.980;73.388;2023-03-14T10:58:26;101005.31;;;6.28;48.23
50292;BME280;36190;54.980;73.388;2023-03-14T11:01:02;100994.66;;;5.95;48.86
50292;BME280;36190;54.980;73.388;2023-03-14T11:03:36;101000.69;;;5.86;49.26
50292;BME280;36190;54.980;73.388;2023-03-14T11:06:08;101003.84;;;5.57;49.43
50292;BME280;36190;54.980;73.388;2023-03-14T11:08:46;100983.88;;;5.30;49.69
50292;BME280;36190;54.980;73.388;2023-03-14T11:11:21;100979.72;;;4.91;50.41
50292;BME280;36190;54.980;73.388;2023-03-14T11:14:05;100978.41;;;4.61;50.73
50292;BME280;36190;54.980;73.388;2023-03-14T11:16:43;100970.06;;;4.43;51.49
50292;BME280;36190;54.980;73.388;2023-03-14T11:19:32;100972.28;;;4.25;51.66
50292;BME280;36190;54.980;73.388;2023-03-14T11:22:06;100955.06;;;3.95;51.91
50292;BME280;36190;54.980;73.388;2023-03-14T11:24:55;100957.09;;;3.78;52.53
50292;BME280;36190;54.980;73.388;2023-03-14T11:27:28;100959.38;;;3.58;52.61
50292;BME280;36190;54.980;73.388;2023-03-14T11:30:02;100957.91;;;3.41;53.24
50292;BME280;36190;54.980;73.388;2023-03-14T11:32:41;100961.53;;;3.27;53.32
50292;BME280;36190;54.980;73.388;2023-03-14T11:35:17;100953.72;;;3.13;53.82
50292;BME280;36190;54.980;73.388;2023-03-14T11:37:52;100941.09;;;2.92;54.36
50292;BME280;36190;54.980;73.388;2023-03-14T11:40:23;100936.31;;;2.84;54.36
50292;BME280;36190;54.980;73.388;2023-03-14T11:42:56;100917.63;;;2.61;54.93
50292;BME280;36190;54.980;73.388;2023-03-14T11:45:30;100927.34;;;2.61;55.22
50292;BME280;36190;54.980;73.388;2023-03-14T11:48:13;100923.97;;;2.59;55.49
50292;BME280;36190;54.980;73.388;2023-03-14T11:50:43;100934.91;;;2.53;55.63
50292;BME280;36190;54.980;73.388;2023-03-14T11:53:14;100929.31;;;2.44;56.03
50292;BME280;36190;54.980;73.388;2023-03-14T11:55:45;100929.81;;;2.37;56.10
50292;BME280;36190;54.980;73.388;2023-03-14T11:58:16;100918.28;;;2.25;56.70
50292;BME280;36190;54.980;73.388;2023-03-14T12:00:47;100914.78;;;2.11;56.99
50292;BME280;36190;54.980;73.388;2023-03-14T12:03:23;100915.19;;;2.05;57.68
50292;BME280;36190;54.980;73.388;2023-03-14T12:06:02;100912.69;;;2.16;58.05
50292;BME280;36190;54.980;73.388;2023-03-14T12:08:46;100911.75;;;2.58;57.54
50292;BME280;36190;54.980;73.388;2023-03-14T12:11:32;100914.91;;;2.89;57.01
50292;BME280;36190;54.980;73.388;2023-03-14T12:14:01;100917.44;;;2.78;56.62
50292;BME280;36190;54.980;73.388;2023-03-14T12:16:37;100901.09;;;2.59;57.01
50292;BME280;36190;54.980;73.388;2023-03-14T12:19:30;100903.19;;;2.41;57.66
50292;BME280;36190;54.980;73.388;2023-03-14T12:22:05;100915.66;;;2.25;57.97
50292;BME280;36190;54.980;73.388;2023-03-14T12:24:35;100884.63;;;2.02;58.21
50292;BME280;36190;54.980;73.388;2023-03-14T12:27:42;100895.69;;;1.95;58.64
50292;BME280;36190;54.980;73.388;2023-03-14T12:29:57;100897.00;;;1.87;59.29
50292;BME280;36190;54.980;73.388;2023-03-14T12:32:26;100892.16;;;1.81;59.64
50292;BME280;36190;54.980;73.388;2023-03-14T12:34:53;100889.75;;;1.63;60.07
50292;BME280;36190;54.980;73.388;2023-03-14T12:37:31;100894.28;;;1.47;60.82
50292;BME280;36190;54.980;73.388;2023-03-14T12:40:16;100889.78;;;1.34;61.34
50292;BME280;36190;54.980;73.388;2023-03-14T12:42:54;100898.81;;;1.30;61.54
50292;BME280;36190;54.980;73.388;2023-03-14T12:45:27;100909.72;;;1.24;61.51
50292;BME280;36190;54.980;73.388;2023-03-14T12:48:08;100892.91;;;1.12;62.12
50292;BME280;36190;54.980;73.388;2023-03-14T12:50:41;100905.41;;;1.08;62.27
50292;BME280;36190;54.980;73.388;2023-03-14T12:53:49;100899.22;;;0.95;62.85
50292;BME280;36190;54.980;73.388;2023-03-14T12:56:27;100895.34;;;0.72;62.99
50292;BME280;36190;54.980;73.388;2023-03-14T12:59:09;100895.81;;;0.64;63.84